createdAt,value
2022-11-02T00:01:14.716Z,100.00
2022-11-02T00:06:51.165Z,100.00
2022-11-02T00:15:09.273Z,100.00
2022-11-02T00:20:42.310Z,100.00
2022-11-02T00:23:30.986Z,100.00
2022-11-02T00:29:05.865Z,100.00
2022-11-02T00:34:41.776Z,100.00
2022-11-02T00:40:17.842Z,100.00
2022-11-02T00:45:51.540Z,100.00
2022-11-02T00:51:31.198Z,100.00
2022-11-02T00:57:06.134Z,100.00
2022-11-02T00:59:54.145Z,100.00
2022-11-02T01:02:42.764Z,100.00
2022-11-02T01:11:14.092Z,100.00
2022-11-02T01:16:47.263Z,100.00
2022-11-02T01:22:20.904Z,100.00
2022-11-02T01:27:57.060Z,100.00
2022-11-02T01:33:48.791Z,100.00
2022-11-02T01:39:36.361Z,100.00
2022-11-02T01:45:16.912Z,100.00
2022-11-02T01:50:53.623Z,100.00
2022-11-02T01:56:25.397Z,100.00
2022-11-02T02:02:03.466Z,100.00
2022-11-02T02:07:42.204Z,100.00
2022-11-02T02:13:31.464Z,100.00
2022-11-02T02:19:08.326Z,100.00
2022-11-02T02:22:01.945Z,100.00
2022-11-02T02:30:42.118Z,99.05
2022-11-02T02:39:04.026Z,99.44
2022-11-02T02:44:42.728Z,98.50
2022-11-02T02:47:33.955Z,98.62
2022-11-02T02:53:04.717Z,97.39
2022-11-02T02:58:36.992Z,96.95
2022-11-02T03:04:14.020Z,94.25
2022-11-02T03:07:03.818Z,93.10
2022-11-02T03:12:43.438Z,95.97
2022-11-02T03:20:59.626Z,100.00
2022-11-02T03:29:26.049Z,100.00
2022-11-02T03:32:17.756Z,100.00
2022-11-02T03:40:33.910Z,100.00
2022-11-02T03:46:12.471Z,100.00
2022-11-02T03:51:49.836Z,100.00
2022-11-02T03:57:36.649Z,100.00
2022-11-02T04:00:25.980Z,100.00
2022-11-02T04:03:15.151Z,100.00
2022-11-02T04:08:52.234Z,100.00
2022-11-02T04:11:58.471Z,100.00
2022-11-02T04:17:52.216Z,100.00
2022-11-02T04:23:46.686Z,100.00
2022-11-02T04:29:13.613Z,100.00
2022-11-02T04:34:47.248Z,100.00
2022-11-02T04:37:58.791Z,100.00
2022-11-02T04:40:47.321Z,100.00
2022-11-02T04:43:35.211Z,100.00
2022-11-02T04:51:49.982Z,100.00
2022-11-02T04:54:38.188Z,100.00
2022-11-02T05:00:11.050Z,100.00
2022-11-02T05:05:49.752Z,100.00
2022-11-02T05:14:09.730Z,100.00
2022-11-02T05:22:31.467Z,100.00
2022-11-02T05:28:22.861Z,100.00
2022-11-02T05:33:52.509Z,100.00
2022-11-02T05:42:11.029Z,100.00
2022-11-02T05:44:59.535Z,100.00
2022-11-02T05:47:48.578Z,100.00
2022-11-02T05:53:24.539Z,100.00
2022-11-02T05:59:01.469Z,100.00
2022-11-02T06:04:33.224Z,100.00
2022-11-02T06:10:05.492Z,100.00
2022-11-02T06:18:33.044Z,100.00
2022-11-02T06:21:21.539Z,100.00
2022-11-02T06:26:57.668Z,100.00
2022-11-02T06:32:51.496Z,100.00
2022-11-02T06:38:28.297Z,100.00
2022-11-02T06:41:18.777Z,100.00
2022-11-02T06:46:52.813Z,100.00
2022-11-02T06:52:22.863Z,100.00
2022-11-02T06:55:16.284Z,100.00
2022-11-02T07:00:50.861Z,100.00
2022-11-02T07:06:26.992Z,100.00
2022-11-02T07:11:56.536Z,100.00
2022-11-02T07:20:32.316Z,100.00
2022-11-02T07:23:21.894Z,100.00
2022-11-02T07:31:43.423Z,100.00
2022-11-02T07:34:31.891Z,100.00
2022-11-02T07:42:58.267Z,100.00
2022-11-02T07:45:46.804Z,100.00
2022-11-02T07:48:36.776Z,100.00
2022-11-02T07:51:24.910Z,100.00
2022-11-02T07:54:13.317Z,100.00
2022-11-02T07:57:02.084Z,98.69
2022-11-02T08:02:37.595Z,94.52
2022-11-02T08:05:26.758Z,94.53
2022-11-02T08:13:40.331Z,92.96
2022-11-02T08:19:08.966Z,90.78
2022-11-02T08:24:54.522Z,91.89
2022-11-02T08:30:31.446Z,91.78
2022-11-02T08:36:08.679Z,93.05
2022-11-02T08:41:40.681Z,90.75
2022-11-02T08:47:20.029Z,89.53
2022-11-02T08:50:10.091Z,89.14
2022-11-02T08:55:39.024Z,88.86
2022-11-02T09:01:16.605Z,86.19
2022-11-02T09:06:48.957Z,85.46
2022-11-02T09:09:37.714Z,85.18
2022-11-02T09:15:12.672Z,84.40
2022-11-02T09:18:02.145Z,83.86
2022-11-02T09:20:51.201Z,82.71
2022-11-02T09:23:39.308Z,83.98
2022-11-02T09:26:28.474Z,81.61
2022-11-02T09:29:16.821Z,83.57
2022-11-02T09:40:23.203Z,79.75
2022-11-02T09:48:49.378Z,78.79
2022-11-02T09:54:29.111Z,77.00
2022-11-02T10:00:18.926Z,77.53
2022-11-02T10:03:14.486Z,76.30
2022-11-02T10:08:54.469Z,74.49
2022-11-02T10:14:32.679Z,73.61
2022-11-02T10:20:18.108Z,73.09
2022-11-02T10:28:40.997Z,70.23
2022-11-02T10:34:17.438Z,68.36
2022-11-02T10:40:06.063Z,69.67
2022-11-02T10:43:12.221Z,69.74
2022-11-02T10:49:06.660Z,69.08
2022-11-02T10:54:40.467Z,68.00
2022-11-02T11:00:34.784Z,67.90
2022-11-02T11:06:13.136Z,69.86
2022-11-02T11:11:57.008Z,68.32
2022-11-02T11:20:37.425Z,67.37
2022-11-02T11:29:02.619Z,67.54
2022-11-02T11:31:51.458Z,66.89
2022-11-02T11:37:33.762Z,65.99
2022-11-02T11:43:12.301Z,66.50
2022-11-02T11:46:06.589Z,64.70
2022-11-02T11:51:40.320Z,64.54
2022-11-02T12:00:30.038Z,63.15
2022-11-02T12:06:09.957Z,63.60
2022-11-02T12:12:07.748Z,62.32
2022-11-02T12:18:00.311Z,63.28
2022-11-02T12:24:38.557Z,62.36
2022-11-02T12:27:32.936Z,60.76
2022-11-02T12:33:35.911Z,61.87
2022-11-02T12:42:15.472Z,60.89
2022-11-02T12:48:00.730Z,58.99
2022-11-02T12:53:47.162Z,59.45
2022-11-02T12:59:44.703Z,58.66
2022-11-02T13:05:22.765Z,58.73
2022-11-02T13:08:16.391Z,57.62
2022-11-02T13:14:15.398Z,57.60
2022-11-02T13:19:51.256Z,61.07
2022-11-02T13:31:07.609Z,58.68
2022-11-02T13:36:55.174Z,56.63
2022-11-02T13:48:51.134Z,57.75
2022-11-02T13:51:41.340Z,57.39
2022-11-02T14:03:09.286Z,60.69
2022-11-02T14:08:50.236Z,61.87
2022-11-02T14:11:47.700Z,61.29
2022-11-02T14:17:24.046Z,62.51
2022-11-02T14:23:38.914Z,63.88
2022-11-02T14:29:41.099Z,65.63
2022-11-02T14:38:20.354Z,67.89
2022-11-02T14:41:16.933Z,68.08
2022-11-02T14:47:20.144Z,68.41
2022-11-02T14:50:15.858Z,67.93
2022-11-02T14:55:49.112Z,69.65
2022-11-02T15:01:21.399Z,69.37
2022-11-02T15:06:59.492Z,70.32
2022-11-02T15:12:41.067Z,70.35
2022-11-02T15:18:38.091Z,69.87
2022-11-02T15:24:30.467Z,70.37
2022-11-02T15:30:09.323Z,71.12
2022-11-02T15:35:41.886Z,71.93
2022-11-02T15:41:25.401Z,73.56
2022-11-02T15:47:06.632Z,75.59
2022-11-02T15:59:00.201Z,77.55
2022-11-02T16:01:49.573Z,77.28
2022-11-02T16:10:18.359Z,79.25
2022-11-02T16:16:09.670Z,79.47
2022-11-02T16:19:01.149Z,79.54
2022-11-02T16:21:49.844Z,79.56
2022-11-02T16:24:41.430Z,78.68
2022-11-02T16:27:31.097Z,78.57
2022-11-02T16:33:02.912Z,79.45
2022-11-02T16:38:40.221Z,81.37
2022-11-02T16:44:18.796Z,80.25
2022-11-02T16:50:16.501Z,80.99
2022-11-02T16:55:49.044Z,80.71
2022-11-02T16:58:37.752Z,81.81
2022-11-02T17:01:26.313Z,81.99
2022-11-02T17:07:08.336Z,83.17
2022-11-02T17:09:59.259Z,81.76
2022-11-02T17:12:47.907Z,81.54
2022-11-02T17:18:30.443Z,81.63
2022-11-02T17:21:32.205Z,81.16
2022-11-02T17:24:35.498Z,81.92
2022-11-02T17:30:45.298Z,82.43
2022-11-02T17:36:35.081Z,84.27
2022-11-02T17:42:31.123Z,85.02
2022-11-02T17:48:11.602Z,83.83
2022-11-02T17:53:45.142Z,82.00
2022-11-02T17:59:16.407Z,80.07
2022-11-02T18:04:59.337Z,79.25
2022-11-02T18:07:47.885Z,79.06
2022-11-02T18:13:26.714Z,80.02
2022-11-02T18:19:02.171Z,83.09
2022-11-02T18:24:40.287Z,86.71
2022-11-02T18:27:31.434Z,88.80
2022-11-02T18:33:13.035Z,89.26
2022-11-02T18:38:51.844Z,89.84
2022-11-02T18:44:27.234Z,91.33
2022-11-02T18:50:05.404Z,90.60
2022-11-02T18:55:43.948Z,89.47
2022-11-02T19:01:24.518Z,90.43
2022-11-02T19:04:17.441Z,91.04
2022-11-02T19:09:50.954Z,90.68
2022-11-02T19:15:27.235Z,89.85
2022-11-02T19:18:15.601Z,88.96
2022-11-02T19:23:53.931Z,91.24
2022-11-02T19:26:43.160Z,90.81
2022-11-02T19:32:18.589Z,93.56
2022-11-02T19:35:08.079Z,93.33
2022-11-02T19:38:00.144Z,94.13
2022-11-02T19:40:49.598Z,94.32
2022-11-02T19:46:28.063Z,94.35
2022-11-02T19:52:18.965Z,92.99
2022-11-02T19:55:10.786Z,93.28
2022-11-02T19:57:59.113Z,96.19
2022-11-02T20:00:53.088Z,96.80
2022-11-02T20:06:27.032Z,96.27
2022-11-02T20:09:17.294Z,96.78
2022-11-02T20:14:53.612Z,97.08
2022-11-02T20:20:35.179Z,98.94
2022-11-02T20:23:24.002Z,100.00
2022-11-02T20:31:48.320Z,98.17
2022-11-02T20:37:23.235Z,99.75
2022-11-02T20:40:13.250Z,100.00
2022-11-02T20:46:31.359Z,100.00
2022-11-02T20:49:04.517Z,100.00
2022-11-02T20:54:34.583Z,100.00
2022-11-02T21:00:13.914Z,100.00
2022-11-02T21:05:51.082Z,100.00
2022-11-02T21:08:40.463Z,100.00
2022-11-02T21:14:34.194Z,100.00
2022-11-02T21:17:23.438Z,100.00
2022-11-02T21:23:01.592Z,100.00
2022-11-02T21:28:42.039Z,100.00
2022-11-02T21:31:30.307Z,100.00
2022-11-02T21:36:58.198Z,100.00
2022-11-02T21:39:59.973Z,100.00
2022-11-02T21:42:52.555Z,100.00
2022-11-02T21:48:54.411Z,100.00
2022-11-02T21:54:32.763Z,100.00
2022-11-02T21:57:20.865Z,100.00
2022-11-02T22:00:12.110Z,100.00
2022-11-02T22:03:02.879Z,100.00
2022-11-02T22:06:01.246Z,100.00
2022-11-02T22:11:36.027Z,100.00
2022-11-02T22:23:07.875Z,100.00
2022-11-02T22:26:03.127Z,100.00
2022-11-02T22:28:51.950Z,100.00
2022-11-02T22:34:33.972Z,100.00
2022-11-02T22:40:10.053Z,100.00
2022-11-02T22:42:59.366Z,100.00
2022-11-02T22:45:48.350Z,100.00
2022-11-02T22:54:26.455Z,100.00
2022-11-02T23:00:20.654Z,100.00
2022-11-02T23:03:09.626Z,100.00
2022-11-02T23:05:58.697Z,100.00
2022-11-02T23:11:45.515Z,100.00
2022-11-02T23:17:23.170Z,100.00
2022-11-02T23:20:17.770Z,100.00
2022-11-02T23:25:47.445Z,100.00
2022-11-02T23:34:09.056Z,100.00
2022-11-02T23:40:11.720Z,100.00
2022-11-02T23:45:53.591Z,100.00
2022-11-02T23:51:48.603Z,100.00
2022-11-02T23:54:55.290Z,100.00
2022-11-02T23:57:43.314Z,100.00
